createdAt,value
2017-07-17T00:01:29.243Z,72.40
2017-07-17T00:03:57.548Z,72.60
2017-07-17T00:06:25.153Z,72.60
2017-07-17T00:08:53.464Z,73.50
2017-07-17T00:11:21.015Z,73.50
2017-07-17T00:13:48.594Z,73.50
2017-07-17T00:16:16.133Z,72.80
2017-07-17T00:18:44.500Z,74.00
2017-07-17T00:21:12.829Z,73.40
2017-07-17T00:23:40.426Z,73.30
2017-07-17T00:26:08.490Z,73.50
2017-07-17T00:28:36.080Z,73.80
2017-07-17T00:31:04.397Z,73.60
2017-07-17T00:33:31.963Z,73.50
2017-07-17T00:35:59.524Z,74.00
2017-07-17T00:38:27.193Z,75.00
2017-07-17T00:40:55.518Z,74.60
2017-07-17T00:43:23.097Z,74.50
2017-07-17T00:45:50.648Z,74.90
2017-07-17T00:48:18.242Z,74.40
2017-07-17T00:50:45.773Z,74.70
2017-07-17T00:53:13.377Z,74.80
2017-07-17T00:55:40.924Z,74.80
2017-07-17T00:58:09.256Z,74.50
2017-07-17T01:00:37.605Z,74.10
2017-07-17T01:03:05.188Z,74.10
2017-07-17T01:05:32.875Z,74.30
2017-07-17T01:08:00.488Z,74.90
2017-07-17T01:10:28.023Z,75.00
2017-07-17T01:12:55.576Z,75.10
2017-07-17T01:15:23.150Z,74.80
2017-07-17T01:17:50.700Z,74.70
2017-07-17T01:20:19.049Z,75.00
2017-07-17T01:22:46.581Z,75.00
2017-07-17T01:25:14.171Z,74.80
2017-07-17T01:27:41.729Z,74.80
2017-07-17T01:30:09.311Z,74.80
2017-07-17T01:32:37.629Z,75.90
2017-07-17T01:35:05.216Z,75.50
2017-07-17T01:37:33.553Z,76.50
2017-07-17T01:40:01.228Z,75.60
2017-07-17T01:42:29.597Z,75.40
2017-07-17T01:44:57.160Z,75.40
2017-07-17T01:47:24.701Z,76.00
2017-07-17T01:49:52.280Z,76.50
2017-07-17T01:52:20.590Z,77.40
2017-07-17T01:54:48.164Z,77.20
2017-07-17T01:57:15.701Z,77.10
2017-07-17T01:59:43.281Z,77.40
2017-07-17T02:02:10.879Z,77.70
2017-07-17T02:04:38.488Z,77.70
2017-07-17T02:07:06.107Z,77.40
2017-07-17T02:09:33.670Z,77.50
2017-07-17T02:12:01.260Z,77.30
2017-07-17T02:14:28.796Z,77.50
2017-07-17T02:16:56.374Z,77.20
2017-07-17T02:19:24.715Z,77.40
2017-07-17T02:21:52.292Z,77.20
2017-07-17T02:24:19.849Z,77.40
2017-07-17T02:26:47.475Z,77.70
2017-07-17T02:29:15.051Z,77.20
2017-07-17T02:31:42.676Z,77.50
2017-07-17T02:34:10.249Z,77.50
2017-07-17T02:36:37.833Z,77.60
2017-07-17T02:39:05.373Z,77.70
2017-07-17T02:41:32.936Z,77.30
2017-07-17T02:44:00.473Z,77.60
2017-07-17T02:46:28.053Z,78.20
2017-07-17T02:48:55.694Z,77.90
2017-07-17T02:51:23.297Z,77.60
2017-07-17T02:53:50.985Z,77.80
2017-07-17T02:56:20.264Z,78.70
2017-07-17T02:58:47.875Z,77.80
2017-07-17T03:01:15.462Z,77.80
2017-07-17T03:03:42.996Z,77.90
2017-07-17T03:06:10.570Z,78.20
2017-07-17T03:08:38.239Z,78.60
2017-07-17T03:11:05.832Z,78.00
2017-07-17T03:13:33.372Z,77.70
2017-07-17T03:16:00.963Z,78.10
2017-07-17T03:18:28.488Z,78.50
2017-07-17T03:20:56.029Z,78.60
2017-07-17T03:23:23.620Z,78.40
2017-07-17T03:25:51.995Z,78.50
2017-07-17T03:28:19.564Z,78.50
2017-07-17T03:30:47.115Z,78.70
2017-07-17T03:33:14.688Z,78.90
2017-07-17T03:35:42.221Z,79.50
2017-07-17T03:38:10.775Z,79.60
2017-07-17T03:40:38.321Z,79.10
2017-07-17T03:43:05.936Z,79.10
2017-07-17T03:45:39.491Z,79.00
2017-07-17T03:48:07.844Z,79.50
2017-07-17T03:50:35.381Z,79.40
2017-07-17T03:53:02.956Z,79.40
2017-07-17T03:55:31.269Z,78.90
2017-07-17T03:57:58.857Z,78.90
2017-07-17T04:00:26.404Z,78.70
2017-07-17T04:02:54.756Z,79.30
2017-07-17T04:05:22.324Z,79.30
2017-07-17T04:07:49.894Z,78.90
2017-07-17T04:10:17.426Z,78.10
2017-07-17T04:12:45.008Z,78.70
2017-07-17T04:15:12.547Z,78.70
2017-07-17T04:17:40.125Z,78.70
2017-07-17T04:20:07.656Z,79.00
2017-07-17T04:22:35.231Z,78.80
2017-07-17T04:25:02.769Z,78.60
2017-07-17T04:27:30.361Z,78.60
2017-07-17T04:29:57.905Z,78.70
2017-07-17T04:32:25.456Z,78.60
2017-07-17T04:34:53.028Z,79.10
2017-07-17T04:37:20.560Z,79.40
2017-07-17T04:39:48.138Z,79.50
2017-07-17T04:42:16.440Z,79.20
2017-07-17T04:44:44.018Z,79.10
2017-07-17T04:47:11.555Z,78.90
2017-07-17T04:49:39.129Z,78.70
2017-07-17T04:52:06.688Z,78.30
2017-07-17T04:54:35.047Z,78.10
2017-07-17T04:57:03.353Z,78.40
2017-07-17T04:59:30.937Z,78.40
2017-07-17T05:01:58.475Z,78.50
2017-07-17T05:04:26.060Z,78.10
2017-07-17T05:06:53.601Z,78.20
2017-07-17T05:09:21.132Z,78.00
2017-07-17T05:11:48.705Z,78.30
2017-07-17T05:14:16.251Z,78.20
2017-07-17T05:16:43.836Z,78.10
2017-07-17T05:19:11.381Z,78.00
2017-07-17T05:21:38.960Z,78.00
2017-07-17T05:24:06.495Z,77.90
2017-07-17T05:26:34.085Z,77.50
2017-07-17T05:29:01.619Z,76.90
2017-07-17T05:31:29.196Z,76.60
2017-07-17T05:33:56.725Z,76.10
2017-07-17T05:36:24.300Z,75.80
2017-07-17T05:38:52.604Z,75.80
2017-07-17T05:41:20.184Z,75.10
2017-07-17T05:43:47.721Z,75.00
2017-07-17T05:46:15.274Z,74.80
2017-07-17T05:48:42.852Z,74.30
2017-07-17T05:51:11.157Z,73.90
2017-07-17T05:53:38.732Z,73.80
2017-07-17T05:56:06.323Z,73.70
2017-07-17T05:58:33.893Z,73.00
2017-07-17T06:01:01.437Z,73.40
2017-07-17T06:03:29.013Z,72.30
2017-07-17T06:05:56.561Z,70.60
2017-07-17T06:08:24.134Z,68.70
2017-07-17T06:10:52.433Z,67.60
2017-07-17T06:13:20.008Z,67.60
2017-07-17T06:15:47.544Z,67.30
2017-07-17T06:18:15.113Z,67.40
2017-07-17T06:20:42.659Z,67.20
2017-07-17T06:23:10.227Z,67.20
2017-07-17T06:25:37.771Z,66.50
2017-07-17T06:28:05.355Z,67.00
2017-07-17T06:30:32.887Z,65.70
2017-07-17T06:33:00.427Z,64.20
2017-07-17T06:35:27.992Z,63.60
2017-07-17T06:37:55.533Z,63.20
2017-07-17T06:40:23.107Z,62.40
2017-07-17T06:42:50.641Z,62.50
2017-07-17T06:45:18.209Z,63.10
2017-07-17T06:47:45.749Z,61.50
2017-07-17T06:50:13.333Z,61.60
2017-07-17T06:52:40.910Z,61.00
2017-07-17T06:55:08.452Z,60.80
2017-07-17T06:57:36.020Z,60.00
2017-07-17T07:00:03.560Z,60.00
2017-07-17T07:02:31.129Z,58.90
2017-07-17T07:04:59.437Z,58.60
2017-07-17T07:07:27.014Z,58.50
2017-07-17T07:09:54.552Z,58.00
2017-07-17T07:12:22.129Z,57.50
2017-07-17T07:14:50.432Z,56.80
2017-07-17T07:17:17.997Z,56.70
2017-07-17T07:19:45.532Z,56.30
2017-07-17T07:22:13.107Z,57.10
2017-07-17T07:24:40.644Z,56.90
2017-07-17T07:27:08.212Z,57.10
2017-07-17T07:29:35.748Z,57.00
2017-07-17T07:32:03.335Z,56.80
2017-07-17T07:34:30.884Z,56.40
2017-07-17T07:36:58.425Z,56.10
2017-07-17T07:39:26.012Z,55.70
2017-07-17T07:41:53.554Z,55.30
2017-07-17T07:44:21.132Z,54.80
2017-07-17T07:46:49.504Z,54.60
2017-07-17T07:49:17.804Z,54.50
2017-07-17T07:51:45.340Z,54.50
2017-07-17T07:54:12.910Z,55.00
2017-07-17T07:56:40.448Z,54.80
2017-07-17T07:59:08.022Z,55.30
2017-07-17T08:01:35.622Z,56.20
2017-07-17T08:04:03.932Z,54.40
2017-07-17T08:06:31.455Z,54.40
2017-07-17T08:08:59.033Z,55.00
2017-07-17T08:11:26.570Z,55.70
2017-07-17T08:13:54.141Z,55.60
2017-07-17T08:16:21.684Z,55.80
2017-07-17T08:18:49.258Z,54.80
2017-07-17T08:21:16.802Z,54.90
2017-07-17T08:23:44.773Z,54.30
2017-07-17T08:26:12.319Z,55.30
2017-07-17T08:28:39.894Z,54.80
2017-07-17T08:31:07.437Z,54.60
2017-07-17T08:33:35.064Z,54.80
2017-07-17T08:36:02.608Z,54.40
2017-07-17T08:38:30.184Z,54.20
2017-07-17T08:40:57.733Z,54.50
2017-07-17T08:43:25.305Z,54.40
2017-07-17T08:45:53.609Z,54.10
2017-07-17T08:48:21.181Z,54.10
2017-07-17T08:50:48.720Z,53.80
2017-07-17T08:53:16.309Z,53.80
2017-07-17T08:55:44.616Z,54.30
2017-07-17T08:58:12.155Z,54.20
2017-07-17T09:00:39.732Z,54.10
2017-07-17T09:03:07.272Z,53.60
2017-07-17T09:05:34.836Z,53.80
2017-07-17T09:08:02.369Z,53.90
2017-07-17T09:10:29.947Z,52.80
2017-07-17T09:12:58.245Z,53.80
2017-07-17T09:15:25.840Z,53.70
2017-07-17T09:17:53.382Z,52.50
2017-07-17T09:20:21.719Z,53.10
2017-07-17T09:22:49.288Z,52.40
2017-07-17T09:25:16.830Z,52.90
2017-07-17T09:27:44.408Z,52.10
2017-07-17T09:30:11.998Z,51.80
2017-07-17T09:32:39.544Z,52.90
2017-07-17T09:35:07.125Z,51.00
2017-07-17T09:37:35.433Z,50.10
2017-07-17T09:40:02.963Z,50.00
2017-07-17T09:42:30.538Z,49.40
2017-07-17T09:44:58.069Z,49.40
2017-07-17T09:47:25.640Z,50.00
2017-07-17T09:49:53.402Z,49.90
2017-07-17T09:52:20.937Z,48.60
2017-07-17T09:54:48.469Z,47.90
2017-07-17T09:57:16.047Z,48.60
2017-07-17T09:59:44.414Z,48.30
2017-07-17T10:02:12.785Z,47.00
2017-07-17T10:04:40.314Z,47.40
2017-07-17T10:07:07.889Z,48.20
2017-07-17T10:09:35.444Z,47.70
2017-07-17T10:12:03.021Z,48.00
2017-07-17T10:14:30.551Z,47.40
2017-07-17T10:16:58.130Z,46.70
2017-07-17T10:19:27.275Z,47.20
2017-07-17T10:21:54.868Z,47.20
2017-07-17T10:24:22.409Z,46.70
2017-07-17T10:26:49.949Z,48.00
2017-07-17T10:29:17.525Z,46.20
2017-07-17T10:31:45.068Z,45.30
2017-07-17T10:34:13.413Z,45.70
2017-07-17T10:36:40.953Z,45.70
2017-07-17T10:39:08.533Z,45.00
2017-07-17T10:41:36.065Z,44.90
2017-07-17T10:44:04.408Z,46.00
2017-07-17T10:46:31.961Z,45.40
2017-07-17T10:49:00.308Z,45.70
2017-07-17T10:51:27.841Z,45.70
2017-07-17T10:53:55.413Z,44.20
2017-07-17T10:56:22.957Z,45.00
2017-07-17T10:58:50.532Z,43.90
2017-07-17T11:01:18.068Z,44.50
2017-07-17T11:03:45.648Z,44.70
2017-07-17T11:06:13.192Z,46.20
2017-07-17T11:08:40.765Z,45.10
2017-07-17T11:11:08.300Z,43.70
2017-07-17T11:13:35.887Z,44.40
2017-07-17T11:16:03.431Z,43.40
2017-07-17T11:18:31.741Z,44.10
2017-07-17T11:20:59.313Z,44.00
2017-07-17T11:23:26.852Z,42.70
2017-07-17T11:25:54.419Z,43.30
2017-07-17T11:28:21.964Z,41.70
2017-07-17T11:30:50.299Z,40.60
2017-07-17T11:33:17.842Z,40.40
2017-07-17T11:35:45.416Z,40.90
2017-07-17T11:38:12.966Z,40.40
2017-07-17T11:40:40.561Z,40.50
2017-07-17T11:43:08.105Z,41.00
2017-07-17T11:45:35.676Z,42.50
2017-07-17T12:00:35.476Z,42.70
2017-07-17T12:03:03.014Z,41.40
2017-07-17T12:07:57.272Z,41.10
2017-07-17T12:10:24.811Z,41.20
2017-07-17T12:12:52.391Z,40.00
2017-07-17T12:15:19.919Z,41.50
2017-07-17T12:17:47.504Z,41.00
2017-07-17T12:20:15.826Z,41.70
2017-07-17T12:22:43.417Z,41.70
2017-07-17T12:25:11.725Z,41.70
2017-07-17T12:27:39.294Z,41.60
2017-07-17T12:30:06.833Z,43.50
2017-07-17T12:32:34.395Z,41.60
2017-07-17T12:35:01.932Z,42.40
2017-07-17T12:37:29.495Z,41.60
2017-07-17T12:39:57.034Z,41.90
2017-07-17T12:42:24.606Z,40.00
2017-07-17T12:44:52.136Z,40.80
2017-07-17T12:47:19.736Z,41.90
2017-07-17T12:49:47.263Z,41.70
2017-07-17T12:52:14.801Z,42.10
2017-07-17T12:54:42.375Z,39.40
2017-07-17T12:57:09.905Z,39.60
2017-07-17T12:59:37.476Z,40.00
2017-07-17T13:02:05.009Z,38.90
2017-07-17T13:04:33.419Z,38.10
2017-07-17T13:07:00.949Z,38.10
2017-07-17T13:09:29.512Z,37.70
2017-07-17T13:11:57.184Z,37.60
2017-07-17T13:14:25.150Z,38.70
2017-07-17T13:16:53.315Z,37.40
2017-07-17T13:19:21.753Z,39.00
2017-07-17T13:21:49.432Z,38.40
2017-07-17T13:24:16.980Z,38.80
2017-07-17T13:26:44.594Z,40.30
2017-07-17T13:29:12.860Z,38.10
2017-07-17T13:31:41.292Z,38.00
2017-07-17T13:34:09.605Z,36.20
2017-07-17T13:36:37.192Z,36.10
2017-07-17T13:39:04.720Z,36.20
2017-07-17T13:41:32.248Z,36.00
2017-07-17T13:43:59.831Z,36.70
2017-07-17T13:46:27.363Z,37.40
2017-07-17T13:48:54.928Z,38.20
2017-07-17T13:51:22.460Z,37.40
2017-07-17T13:53:50.034Z,35.30
2017-07-17T13:56:17.605Z,35.10
2017-07-17T13:58:45.201Z,36.40
2017-07-17T14:01:12.737Z,35.00
2017-07-17T14:03:40.344Z,35.60
2017-07-17T14:06:07.919Z,35.00
2017-07-17T14:08:35.495Z,35.80
2017-07-17T14:11:03.795Z,35.00
2017-07-17T14:13:31.378Z,35.00
2017-07-17T14:15:58.914Z,35.20
2017-07-17T14:18:26.499Z,35.50
2017-07-17T14:20:54.803Z,37.00
2017-07-17T14:23:22.388Z,37.00
2017-07-17T14:25:49.928Z,37.20
2017-07-17T14:28:17.461Z,33.90
2017-07-17T14:30:45.034Z,34.00
2017-07-17T14:33:12.584Z,34.40
2017-07-17T14:35:40.923Z,34.50
2017-07-17T14:38:08.455Z,34.40
2017-07-17T14:40:36.037Z,32.90
2017-07-17T14:43:04.344Z,34.50
2017-07-17T14:45:31.924Z,34.40
2017-07-17T14:47:59.452Z,34.80
2017-07-17T14:50:27.012Z,35.50
2017-07-17T14:52:54.541Z,35.50
2017-07-17T14:55:22.140Z,34.10
2017-07-17T14:57:49.683Z,32.10
2017-07-17T15:00:17.249Z,35.40
2017-07-17T15:02:44.834Z,35.50
2017-07-17T15:05:12.377Z,32.60
2017-07-17T15:07:39.958Z,33.40
2017-07-17T15:10:08.256Z,36.00
2017-07-17T15:12:35.830Z,35.90
2017-07-17T15:15:03.364Z,32.60
2017-07-17T15:17:30.943Z,35.00
2017-07-17T15:19:59.242Z,31.20
2017-07-17T15:22:26.821Z,30.60
2017-07-17T15:24:54.347Z,30.00
2017-07-17T15:27:21.919Z,32.20
2017-07-17T15:29:49.457Z,32.50
2017-07-17T15:32:17.035Z,31.80
2017-07-17T15:34:45.349Z,29.40
2017-07-17T15:37:12.927Z,29.30
2017-07-17T15:39:40.464Z,31.60
2017-07-17T15:42:08.032Z,32.80
2017-07-17T15:44:36.335Z,31.90
2017-07-17T15:47:03.912Z,31.30
2017-07-17T15:49:31.448Z,33.00
2017-07-17T15:51:59.021Z,32.80
2017-07-17T15:54:26.560Z,32.00
2017-07-17T15:56:54.141Z,32.90
2017-07-17T15:59:21.680Z,31.80
2017-07-17T16:01:49.263Z,33.10
2017-07-17T16:04:16.801Z,31.00
2017-07-17T16:06:44.375Z,34.10
2017-07-17T16:09:11.916Z,36.20
2017-07-17T16:11:39.495Z,36.10
2017-07-17T16:14:07.804Z,38.30
2017-07-17T16:16:35.387Z,38.20
2017-07-17T16:19:02.936Z,39.20
2017-07-17T16:21:30.521Z,38.80
2017-07-17T16:23:58.069Z,37.70
2017-07-17T16:26:25.612Z,40.10
2017-07-17T16:28:53.202Z,41.10
2017-07-17T16:31:20.735Z,40.70
2017-07-17T16:33:48.312Z,42.00
2017-07-17T16:36:16.812Z,42.70
2017-07-17T16:38:44.385Z,42.60
2017-07-17T16:41:11.921Z,44.40
2017-07-17T16:43:39.500Z,44.00
2017-07-17T16:46:07.037Z,45.40
2017-07-17T16:48:34.617Z,46.00
2017-07-17T16:51:02.913Z,45.80
2017-07-17T16:53:30.550Z,45.80
2017-07-17T16:55:58.084Z,45.50
2017-07-17T16:58:25.653Z,44.10
2017-07-17T17:00:53.188Z,45.20
2017-07-17T17:03:20.760Z,45.70
2017-07-17T17:05:48.302Z,45.50
2017-07-17T17:08:15.842Z,47.90
2017-07-17T17:10:43.432Z,47.90
2017-07-17T17:13:11.738Z,46.80
2017-07-17T17:15:39.311Z,46.80
2017-07-17T17:18:06.841Z,47.40
2017-07-17T17:20:34.411Z,48.70
2017-07-17T17:23:01.958Z,49.20
2017-07-17T17:25:29.539Z,48.30
2017-07-17T17:27:57.076Z,47.60
2017-07-17T17:30:25.417Z,48.40
2017-07-17T17:32:52.965Z,48.40
2017-07-17T17:35:20.537Z,46.80
2017-07-17T17:37:48.083Z,49.40
2017-07-17T17:40:15.683Z,49.10
2017-07-17T17:42:43.223Z,48.10
2017-07-17T17:45:10.791Z,47.10
2017-07-17T17:47:38.340Z,48.80
2017-07-17T17:50:06.707Z,43.70
2017-07-17T17:52:34.248Z,43.90
2017-07-17T17:55:01.780Z,47.70
2017-07-17T17:57:29.356Z,48.80
2017-07-17T17:59:56.959Z,49.20
2017-07-17T18:02:24.505Z,48.70
2017-07-17T18:04:52.046Z,48.40
2017-07-17T18:07:19.621Z,49.50
2017-07-17T18:09:47.172Z,46.60
2017-07-17T18:12:14.747Z,48.50
2017-07-17T18:14:42.318Z,49.10
2017-07-17T18:17:09.885Z,49.70
2017-07-17T18:19:37.436Z,48.50
2017-07-17T18:22:05.022Z,49.40
2017-07-17T18:24:32.586Z,48.50
2017-07-17T18:27:00.172Z,49.70
2017-07-17T18:29:27.731Z,49.00
2017-07-17T18:31:56.072Z,48.80
2017-07-17T18:34:23.624Z,48.70
2017-07-17T18:36:51.201Z,47.90
2017-07-17T18:39:18.738Z,47.70
2017-07-17T18:41:47.084Z,48.20
2017-07-17T18:44:14.637Z,47.70
2017-07-17T18:46:43.000Z,50.60
2017-07-17T18:49:10.533Z,50.50
2017-07-17T18:51:38.068Z,49.20
2017-07-17T18:54:06.136Z,50.60
2017-07-17T18:56:33.673Z,50.10
2017-07-17T18:59:01.245Z,50.30
2017-07-17T19:01:29.552Z,52.50
2017-07-17T19:03:57.119Z,52.50
2017-07-17T19:06:24.661Z,52.00
2017-07-17T19:08:52.248Z,52.70
2017-07-17T19:11:19.810Z,53.20
2017-07-17T19:13:47.390Z,52.10
2017-07-17T19:16:14.925Z,52.80
2017-07-17T19:18:42.504Z,54.50
2017-07-17T19:21:10.038Z,53.90
2017-07-17T19:23:37.580Z,52.90
2017-07-17T19:26:05.750Z,54.00
2017-07-17T19:28:33.296Z,54.50
2017-07-17T19:31:00.879Z,54.80
2017-07-17T19:33:28.421Z,54.40
2017-07-17T19:35:55.988Z,54.70
2017-07-17T19:38:23.527Z,54.80
2017-07-17T19:40:51.108Z,54.90
2017-07-17T19:43:18.640Z,55.20
2017-07-17T19:45:46.225Z,55.60
2017-07-17T19:48:14.538Z,56.20
2017-07-17T19:50:42.108Z,56.20
2017-07-17T19:53:09.663Z,56.80
2017-07-17T19:55:37.236Z,56.40
2017-07-17T19:58:05.541Z,57.50
2017-07-17T20:00:33.124Z,57.50
2017-07-17T20:03:00.660Z,57.40
2017-07-17T20:05:28.256Z,57.20
2017-07-17T20:07:55.804Z,57.30
2017-07-17T20:10:23.383Z,57.70
2017-07-17T20:12:50.940Z,57.90
2017-07-17T20:15:18.530Z,58.10
2017-07-17T20:17:46.079Z,58.00
2017-07-17T20:20:13.656Z,58.30
2017-07-17T20:22:41.183Z,59.00
2017-07-17T20:25:08.756Z,58.70
2017-07-17T20:27:36.285Z,59.30
2017-07-17T20:30:03.858Z,59.00
2017-07-17T20:32:31.418Z,59.70
2017-07-17T20:34:58.977Z,59.80
2017-07-17T20:37:27.316Z,61.10
2017-07-17T20:39:54.884Z,61.10
2017-07-17T20:42:23.306Z,60.50
2017-07-17T20:44:50.848Z,60.40
2017-07-17T20:47:18.420Z,61.10
2017-07-17T20:49:45.964Z,61.90
2017-07-17T20:52:13.549Z,61.30
2017-07-17T20:54:41.088Z,62.40
2017-07-17T20:57:08.664Z,63.30
2017-07-17T20:59:36.199Z,62.80
2017-07-17T21:02:03.773Z,62.20
2017-07-17T21:04:31.323Z,62.10
2017-07-17T21:06:58.911Z,61.90
2017-07-17T21:09:26.458Z,62.10
2017-07-17T21:11:54.024Z,63.10
2017-07-17T21:14:21.571Z,62.50
2017-07-17T21:16:49.169Z,62.70
2017-07-17T21:19:17.475Z,64.20
2017-07-17T21:21:45.027Z,64.00
2017-07-17T21:24:12.602Z,63.50
2017-07-17T21:26:40.186Z,63.30
2017-07-17T21:29:08.485Z,63.00
2017-07-17T21:31:36.059Z,63.00
2017-07-17T21:34:03.596Z,63.30
2017-07-17T21:36:31.211Z,64.60
2017-07-17T21:38:58.760Z,64.90
2017-07-17T21:41:26.300Z,64.20
2017-07-17T21:43:53.883Z,65.00
2017-07-17T21:46:21.421Z,64.10
2017-07-17T21:48:48.996Z,64.60
2017-07-17T21:51:17.299Z,64.50
2017-07-17T21:53:44.873Z,64.40
2017-07-17T21:56:12.410Z,65.10
2017-07-17T21:58:40.005Z,66.20
2017-07-17T22:01:07.544Z,65.20
2017-07-17T22:03:35.131Z,65.00
2017-07-17T22:06:02.665Z,66.00
2017-07-17T22:08:30.208Z,66.60
2017-07-17T22:10:57.787Z,66.60
2017-07-17T22:13:26.093Z,66.30
2017-07-17T22:15:53.675Z,66.20
2017-07-17T22:18:21.972Z,67.50
2017-07-17T22:20:49.556Z,67.20
2017-07-17T22:23:17.083Z,66.90
2017-07-17T22:25:44.671Z,67.10
2017-07-17T22:28:12.216Z,67.60
2017-07-17T22:30:40.520Z,67.30
2017-07-17T22:33:08.116Z,67.20
2017-07-17T22:35:36.428Z,67.70
2017-07-17T22:38:04.761Z,68.50
2017-07-17T22:40:32.344Z,67.90
2017-07-17T22:43:00.657Z,66.90
2017-07-17T22:45:28.227Z,66.90
2017-07-17T22:47:55.764Z,67.10
2017-07-17T22:50:23.337Z,67.60
2017-07-17T22:52:50.872Z,68.20
2017-07-17T22:55:18.461Z,68.60
2017-07-17T22:57:45.990Z,68.70
2017-07-17T23:00:13.525Z,68.80
2017-07-17T23:02:41.094Z,69.00
2017-07-17T23:05:08.625Z,69.00
2017-07-17T23:07:36.200Z,68.20
2017-07-17T23:10:03.747Z,68.90
2017-07-17T23:12:31.409Z,69.10
2017-07-17T23:14:58.940Z,68.80
2017-07-17T23:17:26.539Z,69.50
2017-07-17T23:19:54.063Z,69.20
2017-07-17T23:22:21.591Z,68.80
2017-07-17T23:24:49.156Z,68.90
2017-07-17T23:27:16.679Z,68.80
2017-07-17T23:29:45.017Z,69.60
2017-07-17T23:32:12.555Z,69.50
2017-07-17T23:34:40.129Z,69.30
2017-07-17T23:37:08.437Z,69.70
2017-07-17T23:39:36.011Z,69.60
2017-07-17T23:42:03.539Z,70.20
2017-07-17T23:44:31.132Z,70.00
2017-07-17T23:46:59.432Z,69.40
2017-07-17T23:49:26.974Z,69.40
2017-07-17T23:51:54.535Z,70.20
2017-07-17T23:54:22.062Z,70.70
2017-07-17T23:56:49.630Z,71.00
2017-07-17T23:59:17.168Z,71.40
